createdAt,value
2023-04-02T00:03:44.654Z,34.6
2023-04-02T00:09:06.420Z,34.6
2023-04-02T00:14:57.404Z,34.5
2023-04-02T00:20:48.162Z,34.5
2023-04-02T00:26:42.442Z,34.5
2023-04-02T00:32:34.321Z,34.4
2023-04-02T00:38:26.399Z,34.4
2023-04-02T00:44:17.935Z,34.4
2023-04-02T00:50:10.105Z,34.4
2023-04-02T00:56:01.385Z,34.4
2023-04-02T01:01:37.650Z,34.3
2023-04-02T01:07:32.296Z,34.3
2023-04-02T01:13:24.308Z,34.3
2023-04-02T01:19:16.684Z,34.3
2023-04-02T01:25:08.967Z,34.3
2023-04-02T01:31:00.207Z,34.3
2023-04-02T01:36:52.061Z,34.2
2023-04-02T01:42:43.766Z,34.2
2023-04-02T01:48:34.903Z,34.2
2023-04-02T01:54:26.367Z,34.1
2023-04-02T02:00:02.886Z,34.1
2023-04-02T02:05:55.546Z,34.1
2023-04-02T02:11:46.976Z,34.1
2023-04-02T02:17:39.438Z,34
2023-04-02T02:23:30.824Z,34
2023-04-02T02:29:22.426Z,34
2023-04-02T02:35:14.269Z,34
2023-04-02T02:41:06.755Z,33.9
2023-04-02T02:46:58.733Z,33.9
2023-04-02T02:52:52.927Z,33.9
2023-04-02T02:58:44.432Z,33.9
2023-04-02T03:04:37.328Z,33.9
2023-04-02T03:10:29.082Z,33.9
2023-04-02T03:16:20.032Z,33.8
2023-04-02T03:21:56.004Z,33.8
2023-04-02T03:27:33.799Z,33.8
2023-04-02T03:33:26.096Z,33.8
2023-04-02T03:39:02.805Z,33.8
2023-04-02T03:44:53.711Z,33.8
2023-04-02T03:50:45.596Z,33.7
2023-04-02T03:56:49.554Z,33.7
2023-04-02T04:02:25.602Z,33.6
2023-04-02T04:08:17.257Z,33.6
2023-04-02T04:14:07.972Z,33.6
2023-04-02T04:20:01.342Z,33.6
2023-04-02T04:25:52.604Z,33.6
2023-04-02T04:31:44.744Z,33.6
2023-04-02T04:37:36.872Z,33.5
2023-04-02T04:43:28.673Z,33.5
2023-04-02T04:49:20.709Z,33.4
2023-04-02T04:55:12.224Z,34.3
2023-04-02T05:01:23.014Z,35.4
2023-04-02T05:07:14.941Z,36.6
2023-04-02T05:13:06.144Z,37.7
2023-04-02T05:18:57.689Z,38.9
2023-04-02T05:24:36.726Z,39.9
2023-04-02T05:30:27.404Z,41.1
2023-04-02T05:36:18.879Z,42.3
2023-04-02T05:42:10.175Z,43.4
2023-04-02T05:48:02.283Z,44.5
2023-04-02T05:53:53.932Z,45.6
2023-04-02T06:00:17.883Z,46.9
2023-04-02T06:06:10.248Z,48.2
2023-04-02T06:12:02.924Z,49.3
2023-04-02T06:17:54.437Z,50.4
2023-04-02T06:23:29.927Z,51.6
2023-04-02T06:29:21.205Z,52.8
2023-04-02T06:34:57.489Z,53.3
2023-04-02T06:40:32.914Z,53.4
2023-04-02T06:46:09.564Z,53.4
2023-04-02T06:51:46.692Z,53.4
2023-04-02T06:57:23.064Z,53.4
2023-04-02T07:03:00.216Z,53.4
2023-04-02T07:08:37.281Z,53.3
2023-04-02T07:13:58.166Z,53.3
2023-04-02T07:19:35.389Z,53.3
2023-04-02T07:25:13.760Z,53.3
2023-04-02T07:30:49.802Z,53.3
2023-04-02T07:36:26.170Z,53.4
2023-04-02T07:42:18.055Z,53.6
2023-04-02T07:47:57.749Z,54
2023-04-02T07:53:34.153Z,54.3
2023-04-02T07:59:26.474Z,54.6
2023-04-02T08:05:03.840Z,55
2023-04-02T08:10:55.874Z,55.4
2023-04-02T08:16:50.373Z,55.9
2023-04-02T08:22:39.043Z,56.5
2023-04-02T08:28:31.179Z,57.1
2023-04-02T08:34:22.965Z,57.6
2023-04-02T08:40:14.702Z,58.1
2023-04-02T08:51:51.232Z,59.1
2023-04-02T08:57:12.150Z,59.6
2023-04-02T09:02:50.365Z,59.7
2023-04-02T09:08:29.170Z,59.9
2023-04-02T09:14:20.962Z,59.9
2023-04-02T09:20:27.002Z,60
2023-04-02T09:26:30.348Z,60.1
2023-04-02T09:32:06.463Z,60.1
2023-04-02T09:38:12.014Z,60
2023-04-02T09:44:01.283Z,60.3
2023-04-02T09:49:54.410Z,60.6
2023-04-02T09:55:45.966Z,60.6
2023-04-02T10:01:37.530Z,60.6
2023-04-02T10:07:17.654Z,60.6
2023-04-02T10:13:21.984Z,60.6
2023-04-02T10:19:16.817Z,60.6
2023-04-02T10:25:20.469Z,60.9
2023-04-02T10:31:12.868Z,61.1
2023-04-02T10:37:04.691Z,61.6
2023-04-02T10:42:56.000Z,61.9
2023-04-02T10:48:59.889Z,62
2023-04-02T10:54:52.735Z,62
2023-04-02T11:00:41.668Z,62.1
2023-04-02T11:06:36.683Z,62.5
2023-04-02T11:12:26.926Z,63
2023-04-02T11:18:22.597Z,63.4
2023-04-02T11:24:28.732Z,63.8
2023-04-02T11:30:05.650Z,63.9
2023-04-02T11:36:21.670Z,64.1
2023-04-02T11:42:08.574Z,64.4
2023-04-02T11:48:05.974Z,64.4
2023-04-02T11:54:08.106Z,64.4
2023-04-02T11:59:59.595Z,64.4
2023-04-02T12:05:54.640Z,64.3
2023-04-02T12:11:57.066Z,64.3
2023-04-02T12:17:33.557Z,64.3
2023-04-02T12:23:26.509Z,64.3
2023-04-02T12:29:17.662Z,64.3
2023-04-02T12:35:09.517Z,64.3
2023-04-02T12:41:00.480Z,64.2
2023-04-02T12:46:52.284Z,64.2
2023-04-02T12:52:43.683Z,64.1
2023-04-02T12:58:36.260Z,64.1
2023-04-02T13:04:27.910Z,64.1
2023-04-02T13:10:18.840Z,64.3
2023-04-02T13:16:10.350Z,64.4
2023-04-02T13:22:01.777Z,64.6
2023-04-02T13:27:53.028Z,64.6
2023-04-02T13:33:29.227Z,64.7
2023-04-02T13:39:06.408Z,64.6
2023-04-02T13:44:58.080Z,64.6
2023-04-02T13:50:49.718Z,64.6
2023-04-02T13:56:26.633Z,64.6
2023-04-02T14:02:02.605Z,64.6
2023-04-02T14:07:41.971Z,64.5
2023-04-02T14:13:33.977Z,64.5
2023-04-02T14:19:26.002Z,64.4
2023-04-02T14:25:19.249Z,64.4
2023-04-02T14:30:40.778Z,64.3
2023-04-02T14:36:17.877Z,64.3
2023-04-02T14:42:10.140Z,64.3
2023-04-02T14:48:02.000Z,64.2
2023-04-02T14:53:53.475Z,64.1
2023-04-02T14:59:45.497Z,64.1
2023-04-02T15:05:38.150Z,64.1
2023-04-02T15:11:42.710Z,64
2023-04-02T15:17:46.571Z,63.9
2023-04-02T15:23:37.311Z,63.9
2023-04-02T15:29:28.608Z,63.9
2023-04-02T15:35:22.280Z,63.8
2023-04-02T15:41:14.878Z,63.8
2023-04-02T15:47:07.308Z,63.7
2023-04-02T15:52:43.768Z,63.6
2023-04-02T15:58:38.415Z,63.6
2023-04-02T16:04:33.332Z,63.6
2023-04-02T16:10:09.645Z,63.5
2023-04-02T16:15:58.045Z,63.4
2023-04-02T16:22:06.428Z,63.3
2023-04-02T16:28:14.452Z,63.1
2023-04-02T16:34:25.212Z,63.1
2023-04-02T16:40:51.660Z,62.9
2023-04-02T16:46:57.059Z,62.9
2023-04-02T16:52:48.387Z,62.9
2023-04-02T16:58:33.819Z,62.8
2023-04-02T17:04:11.392Z,62.8
2023-04-02T17:10:02.777Z,62.7
2023-04-02T17:16:01.465Z,62.6
2023-04-02T17:21:53.133Z,62.6
2023-04-02T17:27:53.350Z,62.5
2023-04-02T17:33:45.773Z,62.4
2023-04-02T17:39:37.283Z,62.4
2023-04-02T17:45:13.509Z,62.3
2023-04-02T17:50:35.024Z,62.3
2023-04-02T17:56:28.968Z,62.2
2023-04-02T18:02:20.195Z,62.2
2023-04-02T18:08:15.928Z,62.1
2023-04-02T18:14:07.476Z,62
2023-04-02T18:20:01.457Z,62
2023-04-02T18:25:53.139Z,61.9
2023-04-02T18:31:30.279Z,61.9
2023-04-02T18:37:21.712Z,61.8
2023-04-02T18:43:13.106Z,61.8
2023-04-02T18:49:04.810Z,61.6
2023-04-02T18:54:55.550Z,61.6
2023-04-02T19:00:46.905Z,61.5
2023-04-02T19:06:42.140Z,61.4
2023-04-02T19:12:18.049Z,61.4
2023-04-02T19:18:09.734Z,59.5
2023-04-02T19:24:01.830Z,57.3
2023-04-02T19:29:55.813Z,56.8
2023-04-02T19:35:47.533Z,56.7
2023-04-02T19:41:23.038Z,56.6
2023-04-02T19:47:14.604Z,56.6
2023-04-02T19:52:50.892Z,56.5
2023-04-02T19:58:36.469Z,56.4
2023-04-02T20:04:37.202Z,56.4
2023-04-02T20:10:13.260Z,56.2
2023-04-02T20:16:05.450Z,56.1
2023-04-02T20:21:57.493Z,56.1
2023-04-02T20:27:33.743Z,56
2023-04-02T20:32:38.974Z,56
2023-04-02T20:38:16.098Z,55.9
2023-04-02T20:43:53.058Z,55.9
2023-04-02T20:49:30.093Z,55.9
2023-04-02T20:55:21.539Z,55.8
2023-04-02T21:00:57.375Z,55.8
2023-04-02T21:06:33.812Z,55.7
2023-04-02T21:12:25.351Z,55.6
2023-04-02T21:18:17.161Z,55.6
2023-04-02T21:24:09.959Z,55.6
2023-04-02T21:29:46.114Z,55.5
2023-04-02T21:35:29.523Z,55.4
2023-04-02T21:41:23.058Z,55.4
2023-04-02T21:47:15.529Z,55.4
2023-04-02T21:53:07.775Z,55.3
2023-04-02T21:58:44.587Z,55.3
2023-04-02T22:04:54.301Z,55.2
2023-04-02T22:10:45.616Z,55.2
2023-04-02T22:16:38.532Z,55.1
2023-04-02T22:22:29.818Z,55
2023-04-02T22:28:06.721Z,55
2023-04-02T22:33:43.377Z,54.9
2023-04-02T22:39:03.866Z,54.9
2023-04-02T22:44:55.202Z,54.8
2023-04-02T22:50:46.278Z,54.8
2023-04-02T22:56:37.948Z,54.8
2023-04-02T23:01:59.837Z,54.6
2023-04-02T23:07:36.468Z,54.6
2023-04-02T23:12:57.647Z,54.6
2023-04-02T23:18:18.711Z,54.5
2023-04-02T23:23:38.278Z,54.4
2023-04-02T23:29:14.657Z,54.4
2023-04-02T23:34:35.580Z,54.4
2023-04-02T23:40:27.416Z,54.3
2023-04-02T23:46:19.451Z,54.3
2023-04-02T23:52:10.832Z,54.2
2023-04-02T23:58:02.246Z,54.1
